sensor_id;sensor_type;location;lat;lon;timestamp;pressure;altitude;pressure_sealevel;temperature;humidity
39051;BME280;24805;55.852;37.644;2022-11-20T00:02:36;99423.22;;;-1.10;68.74
39051;BME280;24805;55.852;37.644;2022-11-20T00:07:38;99412.59;;;-1.07;68.94
39051;BME280;24805;55.852;37.644;2022-11-20T00:12:40;99419.47;;;-1.06;68.96
39051;BME280;24805;55.852;37.644;2022-11-20T00:17:42;99434.88;;;-1.02;68.79
39051;BME280;24805;55.852;37.644;2022-11-20T00:22:44;99434.06;;;-1.03;68.37
39051;BME280;24805;55.852;37.644;2022-11-20T00:27:46;99439.84;;;-0.99;68.76
39051;BME280;24805;55.852;37.644;2022-11-20T00:32:48;99439.66;;;-0.96;68.47
39051;BME280;24805;55.852;37.644;2022-11-20T00:37:50;99420.41;;;-1.07;68.18
39051;BME280;24805;55.852;37.644;2022-11-20T00:42:52;99437.50;;;-1.02;68.85
39051;BME280;24805;55.852;37.644;2022-11-20T00:47:54;99426.97;;;-1.01;68.37
39051;BME280;24805;55.852;37.644;2022-11-20T00:52:56;99425.31;;;-1.02;68.73
39051;BME280;24805;55.852;37.644;2022-11-20T00:57:58;99427.06;;;-1.02;68.48
39051;BME280;24805;55.852;37.644;2022-11-20T01:03:05;99429.25;;;-1.09;68.55
39051;BME280;24805;55.852;37.644;2022-11-20T01:08:07;99425.72;;;-1.08;68.13
39051;BME280;24805;55.852;37.644;2022-11-20T01:13:09;99429.06;;;-1.06;68.08
39051;BME280;24805;55.852;37.644;2022-11-20T01:18:29;99431.66;;;-1.06;68.25
39051;BME280;24805;55.852;37.644;2022-11-20T01:23:33;99420.63;;;-1.10;67.88
39051;BME280;24805;55.852;37.644;2022-11-20T01:28:35;99432.28;;;-1.15;68.04
39051;BME280;24805;55.852;37.644;2022-11-20T01:33:39;99430.19;;;-1.10;67.96
39051;BME280;24805;55.852;37.644;2022-11-20T01:38:41;99432.06;;;-1.12;68.09
39051;BME280;24805;55.852;37.644;2022-11-20T01:43:44;99435.72;;;-1.15;67.97
39051;BME280;24805;55.852;37.644;2022-11-20T01:53:54;99445.31;;;-1.02;68.05
39051;BME280;24805;55.852;37.644;2022-11-20T01:58:59;99448.13;;;-1.06;67.43
39051;BME280;24805;55.852;37.644;2022-11-20T02:04:03;99458.22;;;-1.14;67.09
39051;BME280;24805;55.852;37.644;2022-11-20T02:09:05;99459.44;;;-1.19;66.98
39051;BME280;24805;55.852;37.644;2022-11-20T02:14:08;99471.78;;;-1.21;67.24
39051;BME280;24805;55.852;37.644;2022-11-20T02:19:31;99474.34;;;-1.09;67.54
39051;BME280;24805;55.852;37.644;2022-11-20T02:24:34;99473.84;;;-1.26;67.13
39051;BME280;24805;55.852;37.644;2022-11-20T02:29:41;99477.38;;;-1.27;67.85
39051;BME280;24805;55.852;37.644;2022-11-20T02:34:45;99489.47;;;-1.26;67.23
39051;BME280;24805;55.852;37.644;2022-11-20T02:39:49;99488.44;;;-1.24;67.40
39051;BME280;24805;55.852;37.644;2022-11-20T02:44:51;99483.53;;;-1.28;66.95
39051;BME280;24805;55.852;37.644;2022-11-20T02:49:53;99489.97;;;-1.34;67.43
39051;BME280;24805;55.852;37.644;2022-11-20T02:54:55;99488.41;;;-1.36;67.87
39051;BME280;24805;55.852;37.644;2022-11-20T02:59:57;99490.81;;;-1.33;67.72
39051;BME280;24805;55.852;37.644;2022-11-20T03:04:59;99485.28;;;-1.42;66.89
39051;BME280;24805;55.852;37.644;2022-11-20T03:10:04;99497.06;;;-1.23;67.04
39051;BME280;24805;55.852;37.644;2022-11-20T03:15:06;99509.16;;;-1.22;67.73
39051;BME280;24805;55.852;37.644;2022-11-20T03:20:09;99499.97;;;-1.28;67.58
39051;BME280;24805;55.852;37.644;2022-11-20T03:25:11;99493.84;;;-1.27;67.55
39051;BME280;24805;55.852;37.644;2022-11-20T03:30:14;99504.88;;;-1.23;67.48
39051;BME280;24805;55.852;37.644;2022-11-20T03:35:17;99498.41;;;-1.30;67.44
39051;BME280;24805;55.852;37.644;2022-11-20T03:40:19;99511.75;;;-1.22;66.91
39051;BME280;24805;55.852;37.644;2022-11-20T03:45:21;99509.88;;;-1.20;67.02
39051;BME280;24805;55.852;37.644;2022-11-20T03:50:23;99514.75;;;-1.16;67.55
39051;BME280;24805;55.852;37.644;2022-11-20T03:55:25;99490.28;;;-1.26;66.84
39051;BME280;24805;55.852;37.644;2022-11-20T04:00:27;99514.56;;;-1.13;67.00
39051;BME280;24805;55.852;37.644;2022-11-20T04:05:29;99523.19;;;-1.12;66.45
39051;BME280;24805;55.852;37.644;2022-11-20T04:10:31;99505.81;;;-1.24;66.57
39051;BME280;24805;55.852;37.644;2022-11-20T04:15:33;99520.91;;;-1.17;66.35
39051;BME280;24805;55.852;37.644;2022-11-20T04:20:39;99527.28;;;-1.21;66.74
39051;BME280;24805;55.852;37.644;2022-11-20T04:25:41;99536.94;;;-1.23;67.21
39051;BME280;24805;55.852;37.644;2022-11-20T04:30:43;99547.56;;;-1.26;67.13
39051;BME280;24805;55.852;37.644;2022-11-20T04:35:47;99556.94;;;-1.23;66.68
39051;BME280;24805;55.852;37.644;2022-11-20T04:40:49;99547.66;;;-1.27;66.52
39051;BME280;24805;55.852;37.644;2022-11-20T04:45:53;99554.63;;;-1.28;66.42
39051;BME280;24805;55.852;37.644;2022-11-20T04:50:55;99563.72;;;-1.21;66.70
39051;BME280;24805;55.852;37.644;2022-11-20T04:56:07;99584.22;;;-1.16;66.48
39051;BME280;24805;55.852;37.644;2022-11-20T05:01:15;99575.47;;;-1.15;66.29
39051;BME280;24805;55.852;37.644;2022-11-20T05:06:20;99587.44;;;-1.13;66.66
39051;BME280;24805;55.852;37.644;2022-11-20T05:11:23;99593.59;;;-1.14;66.74
39051;BME280;24805;55.852;37.644;2022-11-20T05:16:25;99596.19;;;-1.14;66.51
39051;BME280;24805;55.852;37.644;2022-11-20T05:21:30;99596.09;;;-1.12;66.28
39051;BME280;24805;55.852;37.644;2022-11-20T05:26:33;99593.19;;;-1.20;66.29
39051;BME280;24805;55.852;37.644;2022-11-20T05:31:35;99608.81;;;-1.20;66.56
39051;BME280;24805;55.852;37.644;2022-11-20T05:36:37;99619.22;;;-1.20;66.67
39051;BME280;24805;55.852;37.644;2022-11-20T05:41:40;99617.41;;;-1.20;66.91
39051;BME280;24805;55.852;37.644;2022-11-20T05:46:41;99627.13;;;-1.22;67.17
39051;BME280;24805;55.852;37.644;2022-11-20T05:51:43;99618.25;;;-1.19;66.85
39051;BME280;24805;55.852;37.644;2022-11-20T05:56:45;99628.66;;;-1.19;66.48
39051;BME280;24805;55.852;37.644;2022-11-20T06:01:48;99637.66;;;-1.11;66.32
39051;BME280;24805;55.852;37.644;2022-11-20T06:06:50;99645.56;;;-1.12;66.42
39051;BME280;24805;55.852;37.644;2022-11-20T06:11:52;99653.81;;;-1.06;66.22
39051;BME280;24805;55.852;37.644;2022-11-20T06:16:54;99666.53;;;-1.01;66.20
39051;BME280;24805;55.852;37.644;2022-11-20T06:21:56;99665.28;;;-0.95;66.07
39051;BME280;24805;55.852;37.644;2022-11-20T06:26:58;99670.63;;;-0.84;66.23
39051;BME280;24805;55.852;37.644;2022-11-20T06:32:00;99685.22;;;-0.69;65.63
39051;BME280;24805;55.852;37.644;2022-11-20T06:37:02;99681.69;;;-0.81;66.32
39051;BME280;24805;55.852;37.644;2022-11-20T06:42:04;99702.19;;;-0.76;65.33
39051;BME280;24805;55.852;37.644;2022-11-20T06:47:06;99696.47;;;-0.81;65.57
39051;BME280;24805;55.852;37.644;2022-11-20T06:52:09;99687.38;;;-0.88;65.32
39051;BME280;24805;55.852;37.644;2022-11-20T06:57:11;99694.47;;;-0.78;65.32
39051;BME280;24805;55.852;37.644;2022-11-20T07:02:14;99691.28;;;-0.68;65.55
39051;BME280;24805;55.852;37.644;2022-11-20T07:07:16;99683.91;;;-0.49;66.09
39051;BME280;24805;55.852;37.644;2022-11-20T07:12:18;99670.44;;;-0.56;64.95
39051;BME280;24805;55.852;37.644;2022-11-20T07:17:20;99689.63;;;-0.31;65.84
39051;BME280;24805;55.852;37.644;2022-11-20T07:22:22;99667.41;;;-0.37;65.16
39051;BME280;24805;55.852;37.644;2022-11-20T07:27:24;99687.44;;;-0.25;63.58
39051;BME280;24805;55.852;37.644;2022-11-20T07:32:26;99691.06;;;-0.15;64.31
39051;BME280;24805;55.852;37.644;2022-11-20T07:37:28;99703.59;;;-0.07;64.05
39051;BME280;24805;55.852;37.644;2022-11-20T07:42:30;99705.78;;;-0.01;63.84
39051;BME280;24805;55.852;37.644;2022-11-20T07:47:36;99695.63;;;0.07;64.51
39051;BME280;24805;55.852;37.644;2022-11-20T07:52:38;99691.78;;;0.13;63.66
39051;BME280;24805;55.852;37.644;2022-11-20T07:57:41;99714.94;;;0.17;63.59
39051;BME280;24805;55.852;37.644;2022-11-20T08:02:43;99696.47;;;0.08;63.58
39051;BME280;24805;55.852;37.644;2022-11-20T08:07:45;99714.00;;;0.18;64.36
39051;BME280;24805;55.852;37.644;2022-11-20T08:12:51;99718.97;;;0.21;62.40
39051;BME280;24805;55.852;37.644;2022-11-20T08:18:13;99724.81;;;0.25;63.63
39051;BME280;24805;55.852;37.644;2022-11-20T08:23:33;99721.69;;;0.32;63.94
39051;BME280;24805;55.852;37.644;2022-11-20T08:28:35;99726.13;;;0.43;62.90
39051;BME280;24805;55.852;37.644;2022-11-20T08:33:37;99710.41;;;0.32;63.73
39051;BME280;24805;55.852;37.644;2022-11-20T08:38:41;99725.03;;;0.34;63.55
39051;BME280;24805;55.852;37.644;2022-11-20T08:43:43;99747.91;;;0.31;63.66
39051;BME280;24805;55.852;37.644;2022-11-20T08:48:47;99721.84;;;0.18;62.76
39051;BME280;24805;55.852;37.644;2022-11-20T08:53:49;99747.47;;;0.37;62.37
39051;BME280;24805;55.852;37.644;2022-11-20T08:58:51;99752.34;;;0.42;62.50
39051;BME280;24805;55.852;37.644;2022-11-20T09:04:14;99756.72;;;0.41;63.34
39051;BME280;24805;55.852;37.644;2022-11-20T09:09:17;99773.44;;;0.51;63.06
39051;BME280;24805;55.852;37.644;2022-11-20T09:14:20;99783.66;;;0.54;63.49
39051;BME280;24805;55.852;37.644;2022-11-20T09:19:26;99790.09;;;0.74;64.06
39051;BME280;24805;55.852;37.644;2022-11-20T09:24:41;99788.84;;;0.80;64.08
39051;BME280;24805;55.852;37.644;2022-11-20T09:29:44;99804.03;;;0.86;63.06
39051;BME280;24805;55.852;37.644;2022-11-20T09:34:46;99817.84;;;0.88;63.30
39051;BME280;24805;55.852;37.644;2022-11-20T09:39:48;99830.06;;;0.87;63.83
39051;BME280;24805;55.852;37.644;2022-11-20T09:50:36;99827.97;;;0.92;62.69
39051;BME280;24805;55.852;37.644;2022-11-20T09:55:40;99833.59;;;0.99;62.14
39051;BME280;24805;55.852;37.644;2022-11-20T10:00:42;99828.22;;;1.00;63.31
39051;BME280;24805;55.852;37.644;2022-11-20T10:05:51;99828.00;;;1.16;63.41
39051;BME280;24805;55.852;37.644;2022-11-20T10:17:22;99832.44;;;1.27;62.97
39051;BME280;24805;55.852;37.644;2022-11-20T10:33:13;99840.69;;;1.21;64.00
39051;BME280;24805;55.852;37.644;2022-11-20T10:38:20;99832.00;;;1.57;63.41
39051;BME280;24805;55.852;37.644;2022-11-20T10:43:32;99843.06;;;1.36;63.21
39051;BME280;24805;55.852;37.644;2022-11-20T10:48:36;99840.78;;;1.32;63.90
39051;BME280;24805;55.852;37.644;2022-11-20T11:04:04;99857.91;;;1.36;63.72
39051;BME280;24805;55.852;37.644;2022-11-20T11:09:21;99860.44;;;1.37;62.59
39051;BME280;24805;55.852;37.644;2022-11-20T11:14:25;99862.97;;;1.26;62.97
39051;BME280;24805;55.852;37.644;2022-11-20T11:19:28;99872.59;;;1.26;63.71
39051;BME280;24805;55.852;37.644;2022-11-20T11:24:30;99856.22;;;1.11;64.62
39051;BME280;24805;55.852;37.644;2022-11-20T11:29:44;99871.84;;;1.24;64.55
39051;BME280;24805;55.852;37.644;2022-11-20T11:35:04;99870.03;;;1.37;63.40
39051;BME280;24805;55.852;37.644;2022-11-20T11:40:10;99870.91;;;1.25;63.18
39051;BME280;24805;55.852;37.644;2022-11-20T11:45:28;99872.63;;;1.13;63.33
39051;BME280;24805;55.852;37.644;2022-11-20T11:50:30;99875.16;;;1.02;64.34
39051;BME280;24805;55.852;37.644;2022-11-20T12:01:01;99891.97;;;1.11;64.10
39051;BME280;24805;55.852;37.644;2022-11-20T12:06:10;99894.28;;;1.02;63.65
39051;BME280;24805;55.852;37.644;2022-11-20T12:11:23;99893.47;;;0.89;63.55
39051;BME280;24805;55.852;37.644;2022-11-20T12:16:26;99897.16;;;0.61;63.21
39051;BME280;24805;55.852;37.644;2022-11-20T12:32:16;99899.75;;;0.61;63.34
39051;BME280;24805;55.852;37.644;2022-11-20T12:43:07;99891.38;;;0.82;62.79
39051;BME280;24805;55.852;37.644;2022-11-20T13:10:32;99910.81;;;0.90;62.96
39051;BME280;24805;55.852;37.644;2022-11-20T13:20:43;99914.16;;;0.92;61.58
39051;BME280;24805;55.852;37.644;2022-11-20T13:25:46;99921.28;;;0.90;61.42
39051;BME280;24805;55.852;37.644;2022-11-20T13:30:51;99917.00;;;0.89;59.88
39051;BME280;24805;55.852;37.644;2022-11-20T13:36:05;99915.97;;;0.79;61.13
39051;BME280;24805;55.852;37.644;2022-11-20T13:41:08;99927.03;;;0.83;61.26
39051;BME280;24805;55.852;37.644;2022-11-20T13:46:40;99926.50;;;0.90;60.77
39051;BME280;24805;55.852;37.644;2022-11-20T13:51:51;99939.59;;;0.78;60.61
39051;BME280;24805;55.852;37.644;2022-11-20T13:57:32;99929.94;;;0.91;61.22
39051;BME280;24805;55.852;37.644;2022-11-20T14:02:37;99942.41;;;0.75;61.09
39051;BME280;24805;55.852;37.644;2022-11-20T14:07:41;99952.53;;;0.79;61.68
39051;BME280;24805;55.852;37.644;2022-11-20T14:12:44;99954.41;;;0.77;61.53
39051;BME280;24805;55.852;37.644;2022-11-20T14:17:46;99960.69;;;0.75;61.69
39051;BME280;24805;55.852;37.644;2022-11-20T14:22:52;99957.53;;;0.82;61.06
39051;BME280;24805;55.852;37.644;2022-11-20T14:27:57;99952.63;;;0.78;60.62
39051;BME280;24805;55.852;37.644;2022-11-20T14:33:02;99977.59;;;0.82;61.35
39051;BME280;24805;55.852;37.644;2022-11-20T14:38:12;99970.28;;;0.87;60.55
39051;BME280;24805;55.852;37.644;2022-11-20T14:43:19;99976.34;;;0.87;61.20
39051;BME280;24805;55.852;37.644;2022-11-20T14:48:26;99979.69;;;0.89;62.43
39051;BME280;24805;55.852;37.644;2022-11-20T14:53:31;99986.06;;;0.85;61.72
39051;BME280;24805;55.852;37.644;2022-11-20T14:58:33;99991.06;;;0.88;61.26
39051;BME280;24805;55.852;37.644;2022-11-20T15:03:38;99990.13;;;0.89;61.72
39051;BME280;24805;55.852;37.644;2022-11-20T15:08:51;99984.41;;;0.97;60.50
39051;BME280;24805;55.852;37.644;2022-11-20T15:13:53;99985.31;;;0.83;60.41
39051;BME280;24805;55.852;37.644;2022-11-20T15:18:56;99994.94;;;0.83;61.28
39051;BME280;24805;55.852;37.644;2022-11-20T15:23:58;99954.50;;;0.63;61.47
39051;BME280;24805;55.852;37.644;2022-11-20T15:29:01;99981.38;;;0.78;61.75
39051;BME280;24805;55.852;37.644;2022-11-20T15:34:05;99979.16;;;0.84;62.95
39051;BME280;24805;55.852;37.644;2022-11-20T15:39:09;99968.91;;;0.81;61.77
39051;BME280;24805;55.852;37.644;2022-11-20T15:44:11;99974.28;;;0.80;61.71
39051;BME280;24805;55.852;37.644;2022-11-20T15:49:15;99980.19;;;0.82;60.49
39051;BME280;24805;55.852;37.644;2022-11-20T15:54:20;99973.94;;;0.84;62.31
39051;BME280;24805;55.852;37.644;2022-11-20T15:59:23;99944.28;;;0.73;59.79
39051;BME280;24805;55.852;37.644;2022-11-20T16:04:25;99965.59;;;0.79;59.65
39051;BME280;24805;55.852;37.644;2022-11-20T16:09:28;99986.38;;;0.68;58.92
39051;BME280;24805;55.852;37.644;2022-11-20T16:14:30;99993.06;;;0.59;60.31
39051;BME280;24805;55.852;37.644;2022-11-20T16:19:50;99969.88;;;0.55;61.38
39051;BME280;24805;55.852;37.644;2022-11-20T16:24:53;99988.78;;;0.58;60.91
39051;BME280;24805;55.852;37.644;2022-11-20T16:29:55;99984.06;;;0.63;60.85
39051;BME280;24805;55.852;37.644;2022-11-20T16:34:57;99973.63;;;0.63;60.84
39051;BME280;24805;55.852;37.644;2022-11-20T16:39:59;99971.75;;;0.65;60.13
39051;BME280;24805;55.852;37.644;2022-11-20T16:45:02;99960.88;;;0.72;60.08
39051;BME280;24805;55.852;37.644;2022-11-20T16:50:07;99936.22;;;0.63;60.95
39051;BME280;24805;55.852;37.644;2022-11-20T16:55:09;99976.34;;;0.75;60.99
39051;BME280;24805;55.852;37.644;2022-11-20T17:00:12;99986.91;;;0.73;60.96
39051;BME280;24805;55.852;37.644;2022-11-20T17:05:14;99987.00;;;0.72;59.97
39051;BME280;24805;55.852;37.644;2022-11-20T17:10:16;99993.25;;;0.69;59.10
39051;BME280;24805;55.852;37.644;2022-11-20T17:15:19;100003.06;;;0.65;60.38
39051;BME280;24805;55.852;37.644;2022-11-20T17:20:21;99996.19;;;0.64;61.09
39051;BME280;24805;55.852;37.644;2022-11-20T17:25:23;99990.66;;;0.69;61.24
39051;BME280;24805;55.852;37.644;2022-11-20T17:30:25;99981.16;;;0.68;61.34
39051;BME280;24805;55.852;37.644;2022-11-20T17:35:27;99985.22;;;0.72;61.26
39051;BME280;24805;55.852;37.644;2022-11-20T17:40:29;99999.03;;;0.74;60.47
39051;BME280;24805;55.852;37.644;2022-11-20T17:45:34;100000.59;;;0.77;59.93
39051;BME280;24805;55.852;37.644;2022-11-20T17:50:38;100005.69;;;0.65;59.60
39051;BME280;24805;55.852;37.644;2022-11-20T17:55:40;100003.16;;;0.64;58.88
39051;BME280;24805;55.852;37.644;2022-11-20T18:01:05;100015.81;;;0.70;60.14
39051;BME280;24805;55.852;37.644;2022-11-20T18:06:16;100001.72;;;0.73;61.11
39051;BME280;24805;55.852;37.644;2022-11-20T18:11:25;99997.25;;;0.75;59.33
39051;BME280;24805;55.852;37.644;2022-11-20T18:16:29;99987.84;;;0.59;59.45
39051;BME280;24805;55.852;37.644;2022-11-20T18:21:32;99972.47;;;0.55;59.59
39051;BME280;24805;55.852;37.644;2022-11-20T18:26:34;99968.38;;;0.51;59.18
39051;BME280;24805;55.852;37.644;2022-11-20T18:31:44;99978.84;;;0.51;59.88
39051;BME280;24805;55.852;37.644;2022-11-20T18:36:46;99990.13;;;0.51;60.40
39051;BME280;24805;55.852;37.644;2022-11-20T18:41:49;99990.84;;;0.53;61.42
39051;BME280;24805;55.852;37.644;2022-11-20T18:47:15;99990.44;;;0.59;61.73
39051;BME280;24805;55.852;37.644;2022-11-20T18:52:23;99993.66;;;0.63;61.98
39051;BME280;24805;55.852;37.644;2022-11-20T18:57:27;100017.06;;;0.64;61.52
39051;BME280;24805;55.852;37.644;2022-11-20T19:02:29;100022.38;;;0.63;61.30
39051;BME280;24805;55.852;37.644;2022-11-20T19:07:31;100008.00;;;0.57;61.56
39051;BME280;24805;55.852;37.644;2022-11-20T19:12:34;99996.50;;;0.60;63.17
39051;BME280;24805;55.852;37.644;2022-11-20T19:17:36;99980.00;;;0.59;62.28
39051;BME280;24805;55.852;37.644;2022-11-20T19:22:38;99980.31;;;0.55;62.53
39051;BME280;24805;55.852;37.644;2022-11-20T19:27:40;99984.69;;;0.54;62.78
39051;BME280;24805;55.852;37.644;2022-11-20T19:32:43;99951.66;;;0.41;62.85
39051;BME280;24805;55.852;37.644;2022-11-20T19:37:45;99969.75;;;0.56;63.10
39051;BME280;24805;55.852;37.644;2022-11-20T19:42:47;99971.44;;;0.57;62.21
39051;BME280;24805;55.852;37.644;2022-11-20T19:47:49;99965.28;;;0.58;62.48
39051;BME280;24805;55.852;37.644;2022-11-20T19:53:08;99964.09;;;0.62;62.62
39051;BME280;24805;55.852;37.644;2022-11-20T19:58:13;99972.38;;;0.56;62.33
39051;BME280;24805;55.852;37.644;2022-11-20T20:03:16;99965.78;;;0.51;62.41
39051;BME280;24805;55.852;37.644;2022-11-20T20:08:18;99967.25;;;0.55;62.42
39051;BME280;24805;55.852;37.644;2022-11-20T20:13:20;99973.22;;;0.57;62.37
39051;BME280;24805;55.852;37.644;2022-11-20T20:18:22;99983.84;;;0.54;62.63
39051;BME280;24805;55.852;37.644;2022-11-20T20:23:24;99958.03;;;0.37;62.67
39051;BME280;24805;55.852;37.644;2022-11-20T20:28:26;99986.03;;;0.47;61.36
39051;BME280;24805;55.852;37.644;2022-11-20T20:33:29;100013.28;;;0.43;61.75
39051;BME280;24805;55.852;37.644;2022-11-20T20:38:31;100003.66;;;0.44;61.65
39051;BME280;24805;55.852;37.644;2022-11-20T20:43:34;100004.31;;;0.47;61.77
39051;BME280;24805;55.852;37.644;2022-11-20T20:48:58;99987.91;;;0.45;61.96
39051;BME280;24805;55.852;37.644;2022-11-20T20:54:00;99981.00;;;0.44;62.54
39051;BME280;24805;55.852;37.644;2022-11-20T20:59:03;99993.31;;;0.42;61.88
39051;BME280;24805;55.852;37.644;2022-11-20T21:04:05;99995.09;;;0.42;62.23
39051;BME280;24805;55.852;37.644;2022-11-20T21:09:08;100003.88;;;0.41;62.04
39051;BME280;24805;55.852;37.644;2022-11-20T21:14:10;100002.31;;;0.38;62.35
39051;BME280;24805;55.852;37.644;2022-11-20T21:19:12;100003.25;;;0.37;61.23
39051;BME280;24805;55.852;37.644;2022-11-20T21:24:14;99999.47;;;0.28;60.76
39051;BME280;24805;55.852;37.644;2022-11-20T21:29:20;100000.75;;;0.48;62.23
39051;BME280;24805;55.852;37.644;2022-11-20T21:34:23;100021.00;;;0.45;62.37
39051;BME280;24805;55.852;37.644;2022-11-20T21:39:26;100009.44;;;0.49;62.40
39051;BME280;24805;55.852;37.644;2022-11-20T21:44:30;100008.50;;;0.50;61.72
39051;BME280;24805;55.852;37.644;2022-11-20T21:49:33;99988.53;;;0.49;62.04
39051;BME280;24805;55.852;37.644;2022-11-20T21:54:35;99966.63;;;0.39;61.00
39051;BME280;24805;55.852;37.644;2022-11-20T21:59:37;99979.34;;;0.43;61.30
39051;BME280;24805;55.852;37.644;2022-11-20T22:04:39;99991.88;;;0.38;61.60
39051;BME280;24805;55.852;37.644;2022-11-20T22:09:43;99996.47;;;0.34;60.87
39051;BME280;24805;55.852;37.644;2022-11-20T22:14:46;99997.16;;;0.24;61.66
39051;BME280;24805;55.852;37.644;2022-11-20T22:19:48;100013.00;;;0.21;60.95
39051;BME280;24805;55.852;37.644;2022-11-20T22:24:50;99986.78;;;0.10;61.76
39051;BME280;24805;55.852;37.644;2022-11-20T22:29:52;99992.44;;;0.16;61.42
39051;BME280;24805;55.852;37.644;2022-11-20T22:34:54;100011.09;;;0.10;60.90
39051;BME280;24805;55.852;37.644;2022-11-20T22:39:56;99994.69;;;-0.05;61.49
39051;BME280;24805;55.852;37.644;2022-11-20T22:44:58;99987.53;;;-0.15;61.79
39051;BME280;24805;55.852;37.644;2022-11-20T22:50:00;99997.31;;;-0.19;62.14
39051;BME280;24805;55.852;37.644;2022-11-20T22:55:03;99980.72;;;-0.18;62.85
39051;BME280;24805;55.852;37.644;2022-11-20T23:00:06;100004.09;;;-0.16;62.19
39051;BME280;24805;55.852;37.644;2022-11-20T23:05:09;99967.00;;;-0.07;61.83
39051;BME280;24805;55.852;37.644;2022-11-20T23:10:11;99982.84;;;-0.10;62.04
39051;BME280;24805;55.852;37.644;2022-11-20T23:15:13;99967.66;;;-0.04;62.00
39051;BME280;24805;55.852;37.644;2022-11-20T23:20:16;99959.00;;;-0.04;62.24
39051;BME280;24805;55.852;37.644;2022-11-20T23:25:17;99960.78;;;-0.05;61.99
39051;BME280;24805;55.852;37.644;2022-11-20T23:30:20;99952.00;;;-0.04;61.88
39051;BME280;24805;55.852;37.644;2022-11-20T23:35:22;99940.53;;;-0.01;62.45
39051;BME280;24805;55.852;37.644;2022-11-20T23:40:24;99942.50;;;-0.05;62.24
39051;BME280;24805;55.852;37.644;2022-11-20T23:45:26;99934.59;;;-0.03;62.58
39051;BME280;24805;55.852;37.644;2022-11-20T23:50:28;99939.06;;;-0.05;61.98
39051;BME280;24805;55.852;37.644;2022-11-20T23:55:31;99927.34;;;-0.12;61.77
